Time;durP1;ratioP1;P1;durP2;ratioP2;P2;SDS_P1;SDS_P2;PMS_P1;PMS_P2;Temp;Humidity;BMP_temperature;BMP_pressure;BME280_temperature;BME280_humidity;BME280_pressure;Samples;Min_cycle;Max_cycle;Signal;HPM_P1;HPM_P2
2021/03/28 00:02:20;;;;;;;162.13;42.15;;;;;;;5.57;100.00;71168.44;5025545;28;20048;-86
2021/03/28 00:05:12;;;;;;;174.68;36.33;;;;;;;5.67;100.00;71180.31;5016128;28;20037;-81
2021/03/28 00:08:23;;;;;;;154.63;33.47;;;;;;;5.50;100.00;71160.72;5037566;28;20033;-91
2021/03/28 00:11:11;;;;;;;172.45;39.65;;;;;;;5.77;100.00;71191.59;5044266;28;20057;-93
2021/03/28 00:13:55;;;;;;;206.93;37.78;;;;;;;5.27;100.00;71134.03;5043927;28;20025;-92
2021/03/28 00:16:29;;;;;;;298.23;60.75;;;;;;;5.01;100.00;71102.25;5045107;28;20040;-87
2021/03/28 00:19:07;;;;;;;239.63;46.15;;;;;;;6.14;100.00;71234.31;5023820;28;20174;-94
2021/03/28 00:21:45;;;;;;;150.00;35.10;;;;;;;6.21;100.00;71241.44;5043949;28;20041;-94
2021/03/28 00:24:36;;;;;;;126.70;33.05;;;;;;;6.16;100.00;71236.72;5052844;28;20069;-91
2021/03/28 00:27:12;;;;;;;95.80;31.60;;;;;;;5.76;100.00;71187.66;5046763;28;20025;-92
2021/03/28 00:29:54;;;;;;;118.40;37.30;;;;;;;5.03;100.00;71106.75;5062592;28;20031;-95
2021/03/28 00:32:44;;;;;;;89.70;31.77;;;;;;;6.20;100.00;71240.25;5044615;28;20049;-93
2021/03/28 00:35:16;;;;;;;91.03;31.10;;;;;;;4.63;100.00;71061.06;5056687;28;20072;-94
2021/03/28 00:37:46;;;;;;;78.32;32.83;;;;;;;4.45;100.00;71040.94;5040721;28;20029;-94
2021/03/28 00:45:44;;;;;;;70.72;29.92;;;;;;;4.06;100.00;70996.50;5914029;23;20045;-95
2021/03/28 00:53:44;;;;;;;48.63;26.15;;;;;;;6.38;100.00;71261.66;5530738;22;20046;-96
2021/03/28 00:57:04;;;;;;;66.10;30.92;;;;;;;6.70;100.00;71298.47;4986475;28;20010;-94
2021/03/28 00:59:59;;;;;;;66.93;29.95;;;;;;;6.67;100.00;71294.88;4994323;28;20047;-95
2021/03/28 01:03:14;;;;;;;61.15;27.45;;;;;;;6.73;100.00;71300.81;5001755;28;20010;-93
2021/03/28 01:05:49;;;;;;;51.13;26.45;;;;;;;6.71;100.00;71299.66;5012840;28;20031;-95
2021/03/28 01:08:35;;;;;;;47.65;28.60;;;;;;;6.97;100.00;71326.59;4997865;28;20038;-89
2021/03/28 01:11:07;;;;;;;48.95;23.77;;;;;;;6.94;100.00;71323.03;4989542;28;20487;-92
2021/03/28 01:14:08;;;;;;;45.20;24.92;;;;;;;5.19;100.00;71125.13;4987528;28;20030;-93
2021/03/28 01:17:02;;;;;;;46.13;23.00;;;;;;;6.96;100.00;71328.16;4982828;28;20037;-92
2021/03/28 01:20:02;;;;;;;44.90;23.58;;;;;;;7.13;100.00;71344.41;4973874;28;20049;-88
2021/03/28 01:22:32;;;;;;;40.63;20.90;;;;;;;6.46;100.00;71269.97;4976403;28;20093;-90
2021/03/28 01:25:31;;;;;;;37.15;21.58;;;;;;;7.13;100.00;71347.16;4975888;28;20030;-93
2021/03/28 01:28:36;;;;;;;52.53;22.27;;;;;;;7.23;100.00;71359.03;4981993;28;20033;-94
2021/03/28 01:31:27;;;;;;;41.63;21.33;;;;;;;6.50;100.00;71275.31;4978002;28;20042;-90
2021/03/28 01:34:38;;;;;;;36.00;21.45;;;;;;;7.27;100.00;71363.19;4983513;28;20034;-95
2021/03/28 01:37:13;;;;;;;35.80;20.55;;;;;;;7.42;100.00;71379.84;4974269;28;20078;-91
2021/03/28 01:40:20;;;;;;;38.22;18.70;;;;;;;6.85;100.00;71315.09;4979228;28;20038;-92
2021/03/28 01:46:17;;;;;;;33.00;19.45;;;;;;;5.94;100.00;71207.84;4970085;28;20116;-95
2021/03/28 01:49:08;;;;;;;47.28;23.08;;;;;;;5.36;100.00;71144.72;4985914;28;20526;-95
2021/03/28 02:01:15;;;;;;;50.67;23.60;;;;;;;5.15;100.00;71120.38;5301872;23;20052;-91
2021/03/28 02:04:29;;;;;;;46.08;23.02;;;;;;;6.58;100.00;71286.94;5070061;22;20136;-94
2021/03/28 02:07:06;;;;;;;51.47;25.00;;;;;;;7.19;100.00;71354.28;5002071;28;20143;-93
2021/03/28 02:13:08;;;;;;;47.55;25.83;;;;;;;6.34;100.00;71251.44;5172534;22;20053;-93
2021/03/28 02:15:44;;;;;;;57.50;26.58;;;;;;;5.19;100.00;71125.13;5031246;28;20026;-95
2021/03/28 02:18:39;;;;;;;49.22;25.17;;;;;;;7.39;100.00;71377.44;5033955;28;20053;-92
2021/03/28 02:21:31;;;;;;;49.85;23.95;;;;;;;7.90;100.00;71435.13;5026297;28;20037;-93
2021/03/28 02:24:16;;;;;;;59.25;28.08;;;;;;;7.34;98.34;71368.19;5022091;28;20056;-92
2021/03/28 02:27:05;;;;;;;55.28;28.13;;;;;;;6.68;98.00;71293.34;5015689;28;20484;-92
2021/03/28 02:30:00;;;;;;;58.25;29.05;;;;;;;8.02;97.81;71446.06;5016212;28;20018;-94
2021/03/28 02:32:56;;;;;;;53.90;25.80;;;;;;;7.93;96.92;71439.28;5016082;28;20033;-93
2021/03/28 02:35:47;;;;;;;52.13;27.73;;;;;;;8.29;96.02;71477.56;5021499;28;20040;-93
2021/03/28 02:38:44;;;;;;;58.53;27.73;;;;;;;7.76;97.75;71419.66;5029935;28;20026;-93
2021/03/28 02:41:27;;;;;;;53.45;26.45;;;;;;;5.71;99.13;71185.03;5026817;28;20124;-94
2021/03/28 02:44:33;;;;;;;53.22;27.52;;;;;;;6.61;98.75;71287.16;5026038;28;20025;-95
2021/03/28 02:47:27;;;;;;;51.67;26.10;;;;;;;7.46;100.00;71382.44;5022709;28;20051;-93
2021/03/28 02:50:12;;;;;;;55.05;28.60;;;;;;;7.19;100.00;71351.53;5013597;28;20030;-95
2021/03/28 02:53:18;;;;;;;64.80;31.70;;;;;;;5.85;100.00;71198.34;5021898;28;20093;-94
2021/03/28 02:55:48;;;;;;;89.15;33.15;;;;;;;6.96;100.00;71327.56;5021527;28;20038;-93
2021/03/28 02:58:32;;;;;;;84.97;35.35;;;;;;;6.83;100.00;71312.69;5021101;28;20030;-95
2021/03/28 03:01:24;;;;;;;100.90;31.20;;;;;;;6.72;100.00;71300.25;5027993;28;20060;-93
2021/03/28 03:04:12;;;;;;;63.33;31.13;;;;;;;7.00;100.00;71332.31;5014885;28;20025;-94
2021/03/28 03:06:51;;;;;;;77.70;31.42;;;;;;;6.90;100.00;71321.00;5030789;28;20061;-95
2021/03/28 03:09:52;;;;;;;80.38;29.80;;;;;;;6.74;100.00;71302.63;5042390;28;20009;-92
2021/03/28 03:12:37;;;;;;;157.45;35.25;;;;;;;6.66;100.00;71293.69;5054768;28;20045;-95
2021/03/28 03:15:13;;;;;;;165.13;39.92;;;;;;;6.64;100.00;71291.31;5054441;28;20013;-93
2021/03/28 03:18:13;;;;;;;110.93;33.40;;;;;;;6.60;100.00;71285.97;5053756;28;20045;-96
2021/03/28 03:21:10;;;;;;;229.05;44.20;;;;;;;6.40;100.00;71264.00;5035937;28;20079;-78
2021/03/28 03:23:59;;;;;;;115.45;41.03;;;;;;;6.64;100.00;71285.25;5041474;28;20037;-95
2021/03/28 03:26:54;;;;;;;121.85;40.58;;;;;;;6.66;100.00;71290.97;5059572;28;20029;-93
2021/03/28 03:29:43;;;;;;;127.40;40.70;;;;;;;6.64;100.00;71291.31;5045266;28;20482;-93
2021/03/28 03:32:30;;;;;;;97.82;40.78;;;;;;;6.70;100.00;71295.72;5042620;28;20104;-94
2021/03/28 03:35:19;;;;;;;;;;;;;;;6.76;100.00;71304.97;5063720;28;20029;-95
2021/03/28 03:38:11;;;;;;;124.10;41.28;;;;;;;6.69;100.00;71296.66;5033141;28;19912;-91
2021/03/28 03:40:57;;;;;;;103.90;37.63;;;;;;;5.37;100.00;71145.91;5042836;28;20041;-93
2021/03/28 03:46:20;;;;;;;89.45;35.72;;;;;;;6.50;100.00;71274.69;5375095;22;20063;-93
2021/03/28 03:49:23;;;;;;;80.63;36.33;;;;;;;6.62;100.00;71285.63;5096053;28;20084;-93
2021/03/28 03:52:01;;;;;;;96.72;40.30;;;;;;;6.60;100.00;71285.97;5076295;28;20020;-92
2021/03/28 03:54:46;;;;;;;88.57;37.60;;;;;;;6.84;100.00;71313.91;5084396;28;20066;-92
2021/03/28 03:57:28;;;;;;;87.03;37.50;;;;;;;6.79;100.00;71308.53;5078101;28;20033;-91
2021/03/28 04:00:24;;;;;;;83.68;40.13;;;;;;;6.89;100.00;71317.09;5073784;28;20028;-90
2021/03/28 04:02:51;;;;;;;81.72;38.90;;;;;;;6.74;100.00;71299.28;5069887;28;20551;-93
2021/03/28 04:05:39;;;;;;;76.43;38.28;;;;;;;6.74;100.00;71299.88;5075099;28;20052;-92
2021/03/28 04:08:31;;;;;;;76.85;38.47;;;;;;;6.84;100.00;71314.47;5077678;28;20024;-95
2021/03/28 04:11:28;;;;;;;76.53;37.83;;;;;;;7.01;100.00;71332.91;5072123;28;20039;-91
2021/03/28 04:14:16;;;;;;;85.03;42.08;;;;;;;7.17;100.00;71351.91;5066529;28;20032;-95
2021/03/28 04:17:34;;;;;;;82.68;43.03;;;;;;;6.67;100.00;71292.16;5079236;28;20059;-95
2021/03/28 04:20:37;;;;;;;86.10;42.65;;;;;;;6.67;100.00;71294.88;5029455;28;20088;-95
2021/03/28 04:23:27;;;;;;;83.45;44.33;;;;;;;6.88;100.00;71318.66;5025874;28;20060;-95
2021/03/28 04:26:15;;;;;;;89.90;45.90;;;;;;;6.62;100.00;71285.63;5018721;28;20538;-94
2021/03/28 04:29:07;;;;;;;88.97;43.35;;;;;;;6.19;100.00;71239.06;5022894;28;20040;-94
2021/03/28 04:32:15;;;;;;;77.97;39.95;;;;;;;7.18;100.00;71352.50;5114457;22;20080;-92
2021/03/28 04:35:26;;;;;;;81.53;40.28;;;;;;;7.18;100.00;71350.38;5141848;22;20037;-93
2021/03/28 04:38:01;;;;;;;71.30;41.25;;;;;;;6.48;100.00;71272.34;5173175;22;21015;-95
2021/03/28 04:41:04;;;;;;;73.43;42.88;;;;;;;7.69;100.00;71411.34;5048350;28;20041;-94
2021/03/28 04:44:03;;;;;;;67.50;39.97;;;;;;;5.94;98.01;71210.56;5052654;28;20120;-94
2021/03/28 04:55:34;;;;;;;73.85;40.17;;;;;;;7.96;95.97;71441.66;5077355;28;20036;-96
2021/03/28 04:58:05;;;;;;;75.18;39.22;;;;;;;6.92;96.33;71323.41;5050980;28;20065;-93
2021/03/28 05:03:37;;;;;;;85.32;43.25;;;;;;;6.22;96.52;71242.63;5073706;28;20051;-96
2021/03/28 05:06:27;;;;;;;76.13;42.80;;;;;;;8.25;95.25;71475.53;5037079;28;20056;-90
2021/03/28 05:09:04;;;;;;;82.15;44.13;;;;;;;8.56;93.66;71510.66;5041061;28;20049;-95
2021/03/28 05:12:05;;;;;;;73.28;42.20;;;;;;;8.29;93.60;71476.94;5151784;22;20024;-96
2021/03/28 05:15:19;;;;;;;83.10;49.33;;;;;;;8.30;93.92;71481.47;5029432;28;20050;-96
2021/03/28 05:18:23;;;;;;;88.38;45.17;;;;;;;6.47;95.06;71271.16;4980281;28;20526;-96
2021/03/28 05:21:23;;;;;;;83.10;45.10;;;;;;;7.68;96.20;71407.41;5015569;28;20025;-93
2021/03/28 05:24:03;;;;;;;86.68;45.83;;;;;;;6.09;96.85;71228.41;5019958;28;20025;-94
2021/03/28 05:26:54;;;;;;;84.82;44.40;;;;;;;7.59;96.81;71399.44;5016362;28;20014;-91
2021/03/28 05:29:57;;;;;;;78.82;44.58;;;;;;;6.89;96.89;71319.81;5000715;28;20107;-91
2021/03/28 05:32:39;;;;;;;79.47;41.22;;;;;;;7.77;96.32;71420.25;5005686;28;20033;-92
2021/03/28 05:35:43;;;;;;;70.00;40.88;;;;;;;7.90;95.53;71435.69;4993288;28;20025;-94
2021/03/28 05:38:45;;;;;;;64.68;39.05;;;;;;;7.96;95.11;71439.50;4983139;28;20037;-92
2021/03/28 05:41:15;;;;;;;74.25;43.25;;;;;;;8.06;93.99;71453.53;4990599;28;20023;-92
2021/03/28 05:44:03;;;;;;;69.78;41.13;;;;;;;8.28;93.72;71476.38;4998629;28;20034;-91
2021/03/28 05:46:45;;;;;;;62.65;36.13;;;;;;;7.89;92.28;71433.91;4998785;28;20033;-90
2021/03/28 05:49:46;;;;;;;63.08;36.15;;;;;;;8.11;93.15;71458.88;5010198;28;20021;-91
2021/03/28 05:52:36;;;;;;;60.22;32.05;;;;;;;7.63;93.77;71401.47;4997393;28;20085;-90
2021/03/28 05:55:06;;;;;;;;;;;;;;;7.89;93.59;71431.78;5019153;28;20060;-92
2021/03/28 05:57:54;;;;;;;45.42;26.80;;;;;;;7.85;93.18;71429.75;5019515;28;19897;-90
2021/03/28 06:00:33;;;;;;;48.40;28.35;;;;;;;8.00;93.07;71447.00;5018520;28;20060;-91
2021/03/28 06:03:14;;;;;;;47.55;27.20;;;;;;;7.91;92.96;71433.56;5034042;28;20113;-91
2021/03/28 06:06:32;;;;;;;36.78;23.70;;;;;;;7.85;93.44;71429.16;5019111;28;20049;-90
2021/03/28 06:09:14;;;;;;;33.85;19.20;;;;;;;7.99;92.71;71445.22;4967829;28;20403;-91
2021/03/28 06:12:10;;;;;;;34.40;22.92;;;;;;;7.89;92.45;71431.78;4997842;28;20102;-91
2021/03/28 06:15:08;;;;;;;35.95;21.77;;;;;;;7.59;93.55;71399.44;4997787;28;20037;-92
2021/03/28 06:18:09;;;;;;;32.42;20.77;;;;;;;7.98;92.46;71444.63;4996246;28;20072;-92
2021/03/28 06:20:40;;;;;;;;;;;;;;;7.84;93.42;71425.25;5018786;28;20034;-91
2021/03/28 06:23:32;;;;;;;32.45;21.98;;;;;;;7.86;93.27;71430.34;5016958;28;19913;-91
2021/03/28 06:26:24;;;;;;;29.38;18.70;;;;;;;7.79;92.79;71423.22;5031621;28;20037;-91
2021/03/28 06:29:18;;;;;;;34.95;18.92;;;;;;;7.67;94.42;71408.97;5011062;28;20049;-92
2021/03/28 06:31:56;;;;;;;35.58;19.55;;;;;;;7.75;93.79;71418.47;5005634;28;20025;-93
2021/03/28 06:34:53;;;;;;;33.35;19.67;;;;;;;8.01;93.16;71442.72;5002216;28;20030;-92
2021/03/28 06:37:47;;;;;;;34.53;20.63;;;;;;;8.12;92.06;71460.06;4989754;28;20069;-93
2021/03/28 06:40:27;;;;;;;32.85;21.70;;;;;;;8.21;91.88;71471.38;4977881;28;20022;-92
2021/03/28 06:43:13;;;;;;;30.15;20.58;;;;;;;8.41;91.42;71493.38;4978065;28;20061;-93
2021/03/28 06:46:01;;;;;;;31.27;18.95;;;;;;;8.67;90.58;71523.13;4981795;28;20045;-91
2021/03/28 06:48:59;;;;;;;27.23;16.95;;;;;;;8.44;89.96;71497.53;4979613;28;20037;-92
2021/03/28 06:51:43;;;;;;;31.85;19.60;;;;;;;8.50;90.33;71498.59;4995969;28;20022;-92
2021/03/28 06:54:21;;;;;;;30.00;18.67;;;;;;;8.18;91.07;71467.81;4978248;28;20868;-90
2021/03/28 06:57:11;;;;;;;26.70;16.73;;;;;;;8.14;91.41;71462.47;4979063;28;20034;-91
2021/03/28 07:00:09;;;;;;;23.33;16.40;;;;;;;8.01;92.73;71447.56;4990619;28;20040;-93
2021/03/28 07:02:45;;;;;;;32.00;17.08;;;;;;;8.09;92.45;71457.09;4999665;28;20042;-91
2021/03/28 07:05:36;;;;;;;26.85;17.13;;;;;;;8.03;92.20;71447.22;4997984;28;20038;-92
2021/03/28 07:08:10;;;;;;;27.75;18.17;;;;;;;8.12;92.04;71457.94;5004431;28;20057;-92
2021/03/28 07:11:15;;;;;;;27.50;16.60;;;;;;;8.02;92.01;71449.38;4998382;28;20061;-92
2021/03/28 07:14:24;;;;;;;23.33;16.20;;;;;;;7.92;92.67;71438.06;4969773;28;20049;-92
2021/03/28 07:17:32;;;;;;;15.63;12.90;;;;;;;8.04;92.67;71448.41;5001040;28;20025;-92
2021/03/28 07:19:59;;;;;;;20.77;15.10;;;;;;;7.78;93.45;71418.69;4999197;28;20041;-92
2021/03/28 07:22:53;;;;;;;22.08;14.15;;;;;;;7.91;93.84;71436.88;5015566;28;20022;-91
2021/03/28 07:25:36;;;;;;;18.30;13.60;;;;;;;8.12;92.72;71460.66;5003211;28;20026;-91
2021/03/28 07:28:20;;;;;;;16.75;13.98;;;;;;;8.02;92.58;71446.06;5001880;28;20089;-89
2021/03/28 07:31:09;;;;;;;23.55;12.88;;;;;;;8.10;92.37;71454.97;5008577;28;20029;-95
2021/03/28 07:33:48;;;;;;;16.52;13.82;;;;;;;8.13;92.25;71461.28;5017109;28;20026;-93
2021/03/28 07:36:44;;;;;;;18.40;14.90;;;;;;;6.89;91.49;71316.50;5219284;22;21541;-95
2021/03/28 07:42:11;;;;;;;16.55;14.48;;;;;;;8.25;92.23;71472.78;5103025;22;20047;-93
2021/03/28 07:45:16;;;;;;;21.35;13.85;;;;;;;8.25;91.55;71475.53;5051475;28;20025;-92
2021/03/28 07:48:21;;;;;;;18.08;14.32;;;;;;;5.85;90.74;71197.75;5061386;28;20092;-93
2021/03/28 07:51:15;;;;;;;17.70;13.63;;;;;;;8.44;90.29;71496.94;5047644;28;20059;-92
2021/03/28 07:54:00;;;;;;;21.92;15.52;;;;;;;8.25;90.79;71474.94;5045744;28;20115;-91
2021/03/28 07:57:03;;;;;;;16.27;12.57;;;;;;;8.28;90.34;71478.50;5046511;28;20079;-91
2021/03/28 07:59:56;;;;;;;18.38;12.77;;;;;;;7.80;90.65;71421.66;5044050;28;20029;-92
2021/03/28 08:02:59;;;;;;;22.27;12.32;;;;;;;8.42;89.45;71494.56;5043644;28;20025;-90
2021/03/28 08:05:37;;;;;;;20.83;11.85;;;;;;;8.30;89.66;71478.13;5038991;28;20032;-93
2021/03/28 08:08:28;;;;;;;15.88;12.25;;;;;;;8.02;90.51;71449.38;5039118;28;20033;-90
2021/03/28 08:10:58;;;;;;;15.95;11.15;;;;;;;7.77;91.87;71420.84;5038178;28;20511;-91
2021/03/28 08:14:02;;;;;;;20.85;12.88;;;;;;;8.05;91.22;71450.22;5038236;28;20040;-89
2021/03/28 08:17:00;;;;;;;17.20;11.00;;;;;;;8.00;90.14;71444.25;5039805;28;20132;-90
2021/03/28 08:19:30;;;;;;;20.98;11.52;;;;;;;8.16;89.06;71464.84;5039707;28;20033;-91
2021/03/28 08:22:12;;;;;;;17.38;12.68;;;;;;;8.05;90.14;71452.94;5039612;28;20029;-92
2021/03/28 08:25:21;;;;;;;21.27;13.10;;;;;;;7.41;89.51;71376.50;5039964;28;20025;-91
2021/03/28 08:28:06;;;;;;;15.10;12.17;;;;;;;8.63;88.21;71519.56;5038833;28;20029;-90
2021/03/28 08:30:36;;;;;;;17.38;12.60;;;;;;;7.80;87.88;71424.41;5042181;28;20063;-90
2021/03/28 08:33:30;;;;;;;19.77;13.20;;;;;;;8.61;88.02;71517.19;5042872;28;20079;-92
2021/03/28 08:36:28;;;;;;;15.60;12.02;;;;;;;7.88;87.88;71432.72;5040349;28;20431;-91
2021/03/28 08:39:18;;;;;;;18.63;13.68;;;;;;;7.79;88.22;71423.22;5040941;28;20059;-91
2021/03/28 08:41:52;;;;;;;23.20;17.52;;;;;;;8.14;89.39;71462.47;5039973;28;20049;-92
2021/03/28 08:47:30;;;;;;;24.90;18.70;;;;;;;8.29;88.97;71479.69;5073323;23;20045;-92
2021/03/28 08:50:23;;;;;;;23.23;17.02;;;;;;;8.18;89.77;71467.19;5032462;28;20026;-92
2021/03/28 08:52:53;;;;;;;22.17;17.25;;;;;;;8.44;89.00;71496.94;5028887;28;20029;-90
2021/03/28 08:58:50;;;;;;;21.92;17.13;;;;;;;7.66;88.88;71407.75;5066776;28;20053;-95
2021/03/28 09:01:49;;;;;;;22.50;15.48;;;;;;;6.83;89.07;71313.31;5030103;28;20056;-94
2021/03/28 09:04:22;;;;;;;20.83;15.23;;;;;;;8.20;89.56;71469.59;4970779;28;20062;-93
2021/03/28 09:10:21;;;;;;;25.05;18.08;;;;;;;8.39;88.66;71488.84;5288632;22;20056;-94
2021/03/28 09:13:13;;;;;;;25.90;18.40;;;;;;;8.44;88.57;71496.94;5059298;28;20078;-91
2021/03/28 09:15:52;;;;;;;27.02;18.80;;;;;;;8.39;88.46;71491.59;5051000;28;20168;-93
2021/03/28 09:18:44;;;;;;;21.60;14.82;;;;;;;8.28;88.86;71473.03;5060319;28;20075;-91
2021/03/28 09:21:10;;;;;;;24.70;16.70;;;;;;;8.12;88.98;71457.94;5061610;28;20931;-91
2021/03/28 09:23:46;;;;;;;24.73;16.48;;;;;;;8.04;89.47;71451.16;5055384;28;20389;-89
2021/03/28 09:26:34;;;;;;;18.40;12.93;;;;;;;8.03;89.72;71444.50;5058821;28;20036;-92
2021/03/28 09:29:35;;;;;;;20.52;14.40;;;;;;;7.87;90.36;71431.53;5060135;28;20064;-93
2021/03/28 09:32:30;;;;;;;18.55;14.57;;;;;;;7.75;90.74;71418.47;5054904;28;20039;-93
2021/03/28 09:35:19;;;;;;;21.75;15.13;;;;;;;8.12;90.09;71457.31;5061348;28;20497;-88
2021/03/28 09:38:07;;;;;;;30.10;17.77;;;;;;;8.38;89.01;71487.06;5060792;28;20032;-93
2021/03/28 09:40:57;;;;;;;28.48;20.13;;;;;;;6.01;88.91;71218.88;5087725;28;20114;-95
2021/03/28 09:43:43;;;;;;;24.92;17.98;;;;;;;5.89;89.87;71205.81;5066927;28;20040;-93
2021/03/28 09:46:45;;;;;;;25.17;18.10;;;;;;;7.84;90.66;71427.97;5081267;28;20024;-92
2021/03/28 09:49:30;;;;;;;25.73;19.63;;;;;;;8.16;90.22;71464.84;5035175;28;20037;-91
2021/03/28 09:52:20;;;;;;;29.42;18.95;;;;;;;8.06;90.74;71453.53;5055502;28;20049;-92
2021/03/28 09:55:23;;;;;;;23.85;16.65;;;;;;;8.25;89.37;71475.53;5069004;28;20051;-93
2021/03/28 09:58:28;;;;;;;22.67;17.50;;;;;;;7.96;89.22;71442.22;5060385;28;20120;-88
2021/03/28 10:01:10;;;;;;;21.83;16.98;;;;;;;8.26;89.85;71476.72;5053212;28;20048;-88
2021/03/28 10:03:55;;;;;;;22.15;16.75;;;;;;;8.45;89.26;71498.13;5055147;28;20029;-91
2021/03/28 10:06:25;;;;;;;19.75;16.20;;;;;;;8.38;88.86;71489.81;5057353;28;20918;-90
2021/03/28 10:09:24;;;;;;;27.08;17.00;;;;;;;8.21;90.13;71471.38;5048502;28;20521;-90
2021/03/28 10:12:03;;;;;;;23.98;15.85;;;;;;;7.29;89.79;71362.25;5043438;28;20036;-92
2021/03/28 10:15:00;;;;;;;21.60;17.50;;;;;;;8.26;89.57;71476.72;5057226;28;20041;-91
2021/03/28 10:17:48;;;;;;;20.60;15.13;;;;;;;8.39;89.50;71491.00;5047869;28;20393;-90
2021/03/28 10:20:22;;;;;;;21.48;15.07;;;;;;;7.05;89.63;71332.19;5053579;28;20033;-91
2021/03/28 10:23:04;;;;;;;31.48;17.13;;;;;;;8.48;89.40;71501.69;5050979;28;20055;-92
2021/03/28 10:25:53;;;;;;;27.73;17.20;;;;;;;8.44;89.55;71494.78;5029651;28;20025;-92
2021/03/28 10:28:37;;;;;;;22.88;16.25;;;;;;;8.51;89.29;71501.94;5027657;28;20088;-91
2021/03/28 10:31:26;;;;;;;31.85;17.55;;;;;;;8.49;89.24;71498.00;5044384;28;20035;-93
2021/03/28 10:34:18;;;;;;;24.33;18.05;;;;;;;8.31;89.75;71479.94;5040768;28;20055;-93
2021/03/28 10:37:05;;;;;;;26.48;18.08;;;;;;;8.36;89.67;71488.03;5064266;28;20025;-93
2021/03/28 10:40:08;;;;;;;30.30;19.20;;;;;;;6.52;90.63;71277.66;5057980;28;20033;-94
2021/03/28 10:43:13;;;;;;;32.75;18.17;;;;;;;8.27;90.50;71477.91;5055147;28;20045;-93
2021/03/28 10:45:56;;;;;;;30.15;18.13;;;;;;;8.22;91.25;71471.97;5064855;28;20025;-94
2021/03/28 10:48:54;;;;;;;25.60;19.17;;;;;;;8.39;90.83;71491.00;5050674;28;20428;-96
2021/03/28 10:51:48;;;;;;;23.88;17.15;;;;;;;8.34;90.06;71486.22;5046590;28;20037;-96
2021/03/28 10:54:42;;;;;;;29.85;20.15;;;;;;;8.39;90.34;71488.25;5044259;28;21095;-93
2021/03/28 10:57:47;;;;;;;23.05;18.00;;;;;;;8.34;90.73;71480.75;5071991;28;20037;-92
2021/03/28 11:00:48;;;;;;;38.72;20.45;;;;;;;8.39;90.70;71491.59;5043228;28;20040;-92
2021/03/28 11:03:15;;;;;;;27.08;18.95;;;;;;;8.34;90.58;71486.22;5066097;28;20075;-93
2021/03/28 11:06:12;;;;;;;25.83;18.35;;;;;;;8.39;90.16;71488.25;5079847;28;20029;-87
2021/03/28 11:08:49;;;;;;;23.40;16.83;;;;;;;8.39;91.23;71491.00;5075795;28;20034;-92
2021/03/28 11:11:34;;;;;;;31.80;21.30;;;;;;;8.37;90.69;71485.88;5076566;28;20046;-93
2021/03/28 11:14:35;;;;;;;30.95;21.70;;;;;;;7.49;91.37;71388.75;5067959;28;20024;-93
2021/03/28 11:17:42;;;;;;;29.30;19.65;;;;;;;8.56;91.06;71511.22;5077249;28;20040;-94
2021/03/28 11:20:30;;;;;;;33.15;21.65;;;;;;;8.55;90.55;71506.72;5077488;28;20024;-90
2021/03/28 11:23:12;;;;;;;27.85;21.15;;;;;;;8.74;90.25;71531.47;5072241;28;20037;-92
2021/03/28 11:25:59;;;;;;;33.75;22.45;;;;;;;8.82;90.21;71540.97;5070909;28;20040;-93
2021/03/28 11:28:53;;;;;;;39.10;24.55;;;;;;;8.62;89.75;71517.78;5066132;28;20036;-91
2021/03/28 11:31:29;;;;;;;35.22;22.13;;;;;;;8.85;89.74;71541.81;5064250;28;20033;-88
2021/03/28 11:34:11;;;;;;;33.42;20.92;;;;;;;8.76;90.06;71533.84;5059791;28;20031;-92
2021/03/28 11:37:00;;;;;;;33.80;23.80;;;;;;;7.83;90.28;71427.38;5092728;28;20024;-91
2021/03/28 11:39:40;;;;;;;31.45;21.65;;;;;;;7.80;89.55;71421.09;5056155;28;20033;-87
2021/03/28 12:08:09;;;;;;;60.88;31.77;;;;;;;7.30;91.17;71363.44;5712077;22;20052;-90
2021/03/28 12:10:42;;;;;;;54.40;33.08;;;;;;;8.31;92.04;71482.66;5078478;28;20029;-88
2021/03/28 12:14:09;;;;;;;60.28;32.20;;;;;;;8.43;92.25;71493.03;5067937;28;20054;-89
2021/03/28 12:17:26;;;;;;;69.30;36.50;;;;;;;8.39;91.92;71488.84;5061417;28;20037;-89
2021/03/28 12:24:07;;;;;;;69.25;34.92;;;;;;;8.21;93.28;71468.63;5074659;28;20547;-90
2021/03/28 12:26:37;;;;;;;73.90;35.90;;;;;;;8.22;93.21;71469.22;5077432;28;20017;-92
2021/03/28 12:29:32;;;;;;;78.05;41.78;;;;;;;8.16;93.94;71462.69;5077682;28;20091;-92
2021/03/28 12:32:53;;;;;;;77.70;38.90;;;;;;;8.13;93.81;71461.84;5070467;28;20058;-92
2021/03/28 12:38:56;;;;;;;72.63;37.45;;;;;;;8.40;93.18;71492.19;5207773;22;20056;-90
2021/03/28 12:41:27;;;;;;;67.38;36.35;;;;;;;8.38;93.28;71489.81;5061005;28;20174;-90
2021/03/28 12:44:06;;;;;;;68.57;38.38;;;;;;;8.45;93.21;71498.13;5056196;28;20047;-90
2021/03/28 12:46:58;;;;;;;75.25;38.38;;;;;;;8.46;93.23;71499.31;5058440;28;20029;-91
2021/03/28 12:49:51;;;;;;;73.57;38.13;;;;;;;8.46;93.05;71499.31;5041254;28;20030;-92
2021/03/28 12:52:34;;;;;;;70.85;36.75;;;;;;;8.27;93.55;71475.16;5053342;28;20111;-92
2021/03/28 12:55:04;;;;;;;76.78;38.08;;;;;;;6.81;94.27;71310.31;5069892;28;20054;-91
2021/03/28 13:00:28;;;;;;;75.70;37.40;;;;;;;6.41;94.24;71265.19;5043488;28;20065;-90
2021/03/28 13:02:58;;;;;;;72.13;38.97;;;;;;;6.51;93.93;71275.88;5027434;28;20028;-91
2021/03/28 13:05:30;;;;;;;74.95;36.60;;;;;;;7.57;94.80;71394.94;5047588;28;20095;-90
2021/03/28 13:08:20;;;;;;;76.82;39.00;;;;;;;7.12;95.82;71346.56;5029683;28;20029;-93
2021/03/28 13:10:57;;;;;;;73.75;40.00;;;;;;;7.80;96.84;71423.81;5033166;28;20032;-94
2021/03/28 13:13:27;;;;;;;72.95;40.10;;;;;;;7.68;97.35;71407.41;5032661;28;20040;-92
2021/03/28 13:16:26;;;;;;;79.63;40.78;;;;;;;7.73;97.54;71416.06;5024739;28;20022;-96
2021/03/28 13:19:32;;;;;;;79.40;42.22;;;;;;;7.09;98.42;71343.00;5047797;28;20033;-95
2021/03/28 13:22:24;;;;;;;72.07;41.47;;;;;;;4.87;98.93;71088.38;5022200;28;20028;-96
2021/03/28 13:48:27;;;;;;;72.00;39.60;;;;;;;7.31;100.00;71364.63;3981253;22;20122;-88
2021/03/28 13:51:15;;;;;;;73.07;41.33;;;;;;;7.84;100.00;71427.97;5034122;28;20021;-88
2021/03/28 13:54:06;;;;;;;79.18;41.90;;;;;;;7.79;100.00;71423.22;5029386;28;20031;-88
2021/03/28 13:56:34;;;;;;;68.78;38.15;;;;;;;7.79;100.00;71419.91;5029166;28;20033;-87
2021/03/28 13:59:09;;;;;;;63.72;38.60;;;;;;;6.76;100.00;71304.97;5034673;28;20032;-87
2021/03/28 14:01:42;;;;;;;75.45;40.00;;;;;;;7.77;100.00;71415.38;5028803;28;20032;-88
2021/03/28 14:04:37;;;;;;;80.20;45.20;;;;;;;7.80;100.00;71421.66;5034714;28;20108;-88
2021/03/28 14:07:22;;;;;;;74.15;42.90;;;;;;;7.88;100.00;71432.72;5033294;28;20386;-86
2021/03/28 14:10:04;;;;;;;82.35;44.25;;;;;;;7.83;100.00;71426.78;5028818;28;20031;-85
2021/03/28 14:12:38;;;;;;;83.13;47.63;;;;;;;7.96;100.00;71439.50;5027257;28;20106;-85
2021/03/28 14:15:24;;;;;;;94.78;48.35;;;;;;;7.91;100.00;71436.88;5032910;28;20475;-86
2021/03/28 14:18:07;;;;;;;100.88;55.25;;;;;;;6.95;100.00;71324.22;5036893;28;20028;-86
2021/03/28 14:20:39;;;;;;;112.40;58.72;;;;;;;7.06;100.00;71338.84;5046284;28;20031;-88
2021/03/28 14:23:12;;;;;;;117.00;60.17;;;;;;;7.99;100.00;71445.81;5049576;28;20482;-86
2021/03/28 14:26:03;;;;;;;125.88;65.32;;;;;;;7.99;100.00;71443.06;5032938;28;20036;-86
2021/03/28 14:28:39;;;;;;;145.20;67.57;;;;;;;6.94;100.00;71325.78;5032933;28;20086;-87
2021/03/28 14:31:12;;;;;;;141.15;70.32;;;;;;;8.02;100.00;71448.78;5031935;28;20500;-86
2021/03/28 14:34:05;;;;;;;154.35;70.60;;;;;;;6.62;100.00;71288.34;5044371;28;20104;-86
2021/03/28 14:36:35;;;;;;;124.82;66.80;;;;;;;8.04;100.00;71451.75;5035687;28;20082;-87
2021/03/28 14:39:27;;;;;;;119.47;61.95;;;;;;;8.03;100.00;71444.50;5028442;28;20037;-87
2021/03/28 14:42:05;;;;;;;120.95;62.30;;;;;;;7.97;100.00;71437.97;5036202;28;20051;-84
2021/03/28 14:44:59;;;;;;;114.00;60.13;;;;;;;7.88;100.00;71430.00;5037858;28;20102;-86
2021/03/28 14:47:38;;;;;;;130.25;61.95;;;;;;;7.41;100.00;71378.66;5041965;28;20029;-85
2021/03/28 14:50:08;;;;;;;139.55;64.20;;;;;;;7.87;100.00;71431.53;5048632;28;20029;-85
2021/03/28 14:52:35;;;;;;;131.60;62.92;;;;;;;7.93;100.00;71438.69;5046982;28;20083;-86